Flight Track Log - Related Links

Times and Time Zones

All times are in EDT time to prevent confusion due to time zone crossing. See the SWA691 flight status page for this flight to view local times or setup timezone preferences in your user account.

Time Position Orientation Groundspeed Altitude Reporting Facility
EDT Latitude Longitude Course Direction KTS MPH feet Rate Location/Type
Fri 09:54:02 AM 32.7442 -117.2225 303° West 156 180 1,600  Level Los Angeles Center
Fri 09:55:03 AM 32.7778 -117.2839 303° West 208 239 3,500 2,537 Climbing Los Angeles Center
Fri 09:56:05 AM 32.8211 -117.3500 308° West 259 298 6,800 3,415 Climbing Los Angeles Center
Fri 09:57:06 AM 32.8764 -117.4200 313° West 281 323 10,500 3,317 Climbing Los Angeles Center
Fri 09:58:08 AM 32.9369 -117.5053 310° West 326 375 13,600 3,774 Climbing Los Angeles Center
Fri 09:59:10 AM 33.0181 -117.6119 312° West 356 410 18,300 3,756 Climbing Los Angeles Center
Fri 10:00:11 AM 33.0875 -117.7072 311° West 372 428 21,300 2,293 Climbing Los Angeles Center
Fri 10:01:13 AM 33.1592 -117.8058 311° West 388 447 23,000 829 Climbing Los Angeles Center
Fri 10:02:14 AM 33.2119 -117.9203 299° West 390 449 23,000  Level Los Angeles Center
Fri 10:03:16 AM 33.2506 -118.0428 291° West 392 451 23,000 1,113 Level Los Angeles Center
Fri 10:04:18 AM 33.2908 -118.1658 291° West 394 453 25,300 2,341 Climbing Los Angeles Center
Fri 10:05:19 AM 33.3322 -118.2922 291° West 403 464 27,800 2,195 Climbing Los Angeles Center
Fri 10:06:21 AM 33.3803 -118.4242 294° West 421 484 29,800 2,049 Climbing Los Angeles Center
Fri 10:07:22 AM 33.4683 -118.5317 314° West 444 511 32,000 2,293 Climbing Los Angeles Center
Fri 10:08:24 AM 33.5581 -118.6367 316° Northwest 446 513 34,500 2,226 Climbing Los Angeles Center
Fri 10:09:26 AM 33.6631 -118.7611 315° West 439 505 36,600 1,805 Climbing Los Angeles Center
Fri 10:10:27 AM 33.7514 -118.8661 315° West 445 512 38,200 1,512 Climbing Los Angeles Center
Fri 10:11:29 AM 33.8392 -118.9683 316° Northwest 438 504 39,700 871 Climbing Los Angeles Center
Fri 10:12:31 AM 33.9278 -119.0739 315° West 444 511 40,000 146 Climbing Los Angeles Center
Fri 10:13:32 AM 34.0183 -119.1831 315° West 456 525 40,000  Level Los Angeles Center
Fri 10:14:34 AM 34.1108 -119.2936 315° West 464 534 40,000  Level Los Angeles Center
Fri 10:15:36 AM 34.2039 -119.4025 316° Northwest 465 535 40,000  Level Los Angeles Center
Fri 10:16:38 AM 34.3017 -119.5072 319° Northwest 466 536 40,000  Level Los Angeles Center
Fri 10:17:39 AM 34.4158 -119.6350 317° Northwest 467 537 40,000  Level Los Angeles Center
Fri 10:18:41 AM 34.5106 -119.7397 318° Northwest 461 531 40,000  Level Los Angeles Center
Fri 10:19:43 AM 34.6058 -119.8444 318° Northwest 463 533 40,000  Level Los Angeles Center
Fri 10:20:57 AM 34.7142 -119.9636 318° Northwest 461 531 40,000  Level Los Angeles Center
Fri 10:21:59 AM 34.8075 -120.0681 317° Northwest 458 527 40,000  Level Los Angeles Center
Fri 10:23:01 AM 34.9106 -120.1822 318° Northwest 456 525 40,000  Level Los Angeles Center
Fri 10:24:02 AM 35.0033 -120.2858 318° Northwest 457 526 40,000  Level Los Angeles Center
Fri 10:25:04 AM 35.0969 -120.3917 317° Northwest 462 532 40,000  Level Los Angeles Center
Fri 10:26:06 AM 35.2081 -120.5183 317° Northwest 464 534 40,000  Level Los Angeles Center
Fri 10:27:08 AM 35.3086 -120.6183 321° Northwest 469 540 40,000  Level Los Angeles Center
Fri 10:28:10 AM 35.4133 -120.7161 323° Northwest 474 545 40,000  Level Los Angeles Center
Fri 10:29:12 AM 35.5172 -120.8133 323° Northwest 473 544 40,000  Level Los Angeles Center
Fri 10:30:13 AM 35.6181 -120.9097 322° Northwest 468 539 40,000  Level Los Angeles Center
Fri 10:31:15 AM 35.7214 -120.9992 325° Northwest 455 524 40,000  Level Los Angeles Center
Fri 10:32:17 AM 35.8444 -121.1142 323° Northwest 460 529 40,000  Level Los Angeles Center
Fri 10:33:19 AM 35.9472 -121.2097 323° Northwest 461 531 40,000 -511 Level Los Angeles Center
Fri 10:34:38 AM 36.0728 -121.3228 324° Northwest 463 533 38,800 -900 Descending Oakland Center
Fri 10:35:39 AM 36.1744 -121.4189 323° Northwest 461 531 37,900 -1,426 Descending Oakland Center
Fri 10:36:40 AM 36.2950 -121.5331 323° Northwest 456 525 35,900 -2,951 Descending Oakland Center
Fri 10:37:41 AM 36.3967 -121.6281 323° Northwest 457 526 31,900 -4,000 Descending Oakland Center
Fri 10:38:46 AM 36.5000 -121.7333 321° Northwest 478 550 27,500 -3,929 Descending Northern Cal TRACON
Fri 10:39:34 AM 36.6000 -121.8167 326° Northwest 464 534 24,500 -3,358 Descending Northern Cal TRACON
Fri 10:40:35 AM 36.6833 -121.9167 316° Northwest 439 505 21,400 -3,143 Descending Northern Cal TRACON
Fri 10:41:40 AM 36.8000 -121.9833 335° Northwest 421 484 17,900 -3,350 Descending Northern Cal TRACON
Fri 10:42:35 AM 36.9000 -122.0000 352° North 412 474 14,700 -3,130 Descending Northern Cal TRACON
Fri 10:43:35 AM 37.0167 -122.0333 347° North 390 449 11,900 -2,350 Descending Northern Cal TRACON
Fri 10:44:35 AM 37.1167 -122.0667 345° North 359 413 10,000 -1,160 Descending Northern Cal TRACON
Fri 10:45:34 AM 37.2000 -122.0833 351° North 288 331 9,600 -947 Descending Northern Cal TRACON
Fri 10:46:29 AM 37.2667 -122.1000 349° North 285 328 8,200 -1,148 Descending Northern Cal TRACON
Fri 10:47:29 AM 37.3333 -122.1167 349° North 247 284 7,400 -1,664 Descending Northern Cal TRACON
Fri 10:48:28 AM 37.4000 -122.1333 349° North 270 311 4,900 -1,579 Descending Northern Cal TRACON
Fri 10:49:23 AM 37.4667 -122.1500 349° North 226 260 4,400 -614 Descending Northern Cal TRACON
Fri 10:49:56 AM 37.4950 -122.1639 339° North 218 251 4,000 -830 Descending Oakland Center
Fri 10:50:57 AM 37.5419 -122.1794 345° North 185 213 3,100 -934 Descending Oakland Center
Fri 10:51:58 AM 37.5631 -122.2375 295° West 181 208 2,100 -836 Descending Oakland Center
Fri 10:52:59 AM 37.5803 -122.2803 297° West 159 183 1,400 -683 Descending Oakland Center
Fri 10:54:01 AM 37.5964 -122.3172 299° West 137 158 700 -585 Descending Oakland Center
Fri 10:55:02 AM 37.6133 -122.3564 299° West 128 147 200 -492 Descending Oakland Center
Fri 10:57:00 AM 37.6167 -122.3667 322° Northwest  Level FlightAware Approximate
Fri 11:04:00 AM 37.6191 -122.3752 322° Northwest  Level Estimated

Login

Don't have an account? Register now (free) for customized features, flight alerts, and more!